Portada
METAR-TAF:

METAR-TAF

Aeroports :

Aeroport de París-Charles de Gaulle

París-Charles de Gaulle, França

latitud: 49-01N, longitud: 002-32E, altitud: 118 m

Observació

L'informe es va fer fa 10 minuts, a les 09:00 UTC
Vent 6 kt del Nord, variant entre Nord/Nord-Oest i Nord-Est
Temperatura 20°C
Humitat 53%
Pressió 1026 hPa
Visibilitat 10 km o més
sense núvols per sota de 1500 mi sense presència de cumulonimbus.

METAR: LFPG 220900Z 01006KT 330V040 CAVOK 20/10 Q1026 NOSIG

Hora: 11:10 (09:10 UTC)

Pronòstic

L'informe es va fer fa 4 hores i 10 minuts, a les 05:00 UTC
Pronòstic vàlid del 22 a les 06 UTC al 23 a les 12 UTC
Vent 5 kt del Nord
Visibilitat 10 km o més
sense núvols per sota de 1500 mi sense presència de cumulonimbus.

TAF: LFPG 220500Z 2206/2312 36005KT CAVOK TX26/2215Z TN14/2206Z

Observacions i pronòstics meteorològics de més de 4000 aeroports (METAR i TAF).

Les estacions disponibles són els punts grocs i vermells al mapa.

Posi el ratolí al punt desitjat per veure el nom de l'estació.

Feu clic per veure les observacions i els pronòstics meteorològics.

Per canviar el mapa: feu clic els botons verds amb una creu de color negre per apropar; al botó verd amb un guió per allunyar la imatge; o en les fletxes verdes per a mapes adjacents.


METAR-TAF: